Station Historical Data
Daily Summary for August 20, 2017 Units:  Metric    English   Both
« Previous Day
Next Day »
Daily Weekly Monthly Yearly Custom
  High: Low: Average:
Temperature: 26.4 °C 14.8 °C 21.1 °C
Dew Point: 20.2 °C 12.7 °C 16.1 °C
Humidity: 90% 57% 74%
Wind Speed: 20.9km/h 0km/h 4.7km/h
Wind Gust: 27.4km/h - -
Wind- - SW
Pressure: 1019.2 hPa 1014.1 hPa -
Precipitation: 0 mm    
Historical Graphs
 
 
Tabular Data for August 20, 2017
Time Temperature Dew Point Pressure Wind Wind Speed Wind Gust Humidity Rainfall Rate (Hourly)
00:04 18.2 °C 13.7 °C 1014.1 hPa West 4.8 km/h 9.7 km/h 75% 0 mm
00:09 18.1 °C 13.8 °C 1014.1 hPa West 4.8 km/h 9.7 km/h 76% 0 mm
00:14 18.1 °C 13.6 °C 1014.4 hPa West 1.6 km/h 9.7 km/h 75% 0 mm
00:19 17.9 °C 13.4 °C 1014.4 hPa West 4.8 km/h 6.4 km/h 75% 0 mm
00:24 17.9 °C 13.6 °C 1014.4 hPa West 3.2 km/h 8 km/h 76% 0 mm
00:29 17.8 °C 13.6 °C 1014.4 hPa West 3.2 km/h 8 km/h 76% 0 mm
00:34 17.8 °C 13.5 °C 1014.4 hPa Calm   4.8 km/h 76% 0 mm
00:39 17.7 °C 13.4 °C 1014.4 hPa Calm   4.8 km/h 76% 0 mm
00:44 17.6 °C 13.5 °C 1014.4 hPa Calm     77% 0 mm
00:49 17.5 °C 13.4 °C 1014.4 hPa Calm   6.4 km/h 77% 0 mm
00:54 17.4 °C 13.4 °C 1014.4 hPa West 1.6 km/h 6.4 km/h 77% 0 mm
00:59 17.4 °C 13.3 °C 1014.4 hPa Calm   6.4 km/h 77% 0 mm
01:05 17.2 °C 13.3 °C 1014.8 hPa Calm     78% 0 mm
01:10 17.2 °C 13.3 °C 1014.8 hPa Calm     78% 0 mm
01:15 17.2 °C 13.3 °C 1014.8 hPa Calm     78% 0 mm
01:20 17.1 °C 13.2 °C 1014.8 hPa Calm     78% 0 mm
01:25 16.8 °C 13.2 °C 1014.8 hPa Calm     79% 0 mm
01:30 16.7 °C 13.2 °C 1014.8 hPa West 3.2 km/h 3.2 km/h 80% 0 mm
01:35 16.8 °C 13.1 °C 1015.1 hPa Calm   3.2 km/h 79% 0 mm
01:40 16.8 °C 13.1 °C 1014.8 hPa Calm     79% 0 mm
01:45 16.8 °C 13.2 °C 1014.8 hPa Calm   3.2 km/h 79% 0 mm
01:50 16.8 °C 13.1 °C 1015.1 hPa Calm   3.2 km/h 79% 0 mm
01:55 16.7 °C 13.1 °C 1015.1 hPa Calm     79% 0 mm
02:00 16.7 °C 13.1 °C 1015.1 hPa Calm     79% 0 mm
02:05 16.6 °C 13.2 °C 1015.1 hPa Calm   4.8 km/h 80% 0 mm
02:10 16.6 °C 12.9 °C 1015.1 hPa Calm   1.6 km/h 79% 0 mm
02:15 16.4 °C 13 °C 1015.1 hPa Calm     80% 0 mm
02:20 16.3 °C 12.9 °C 1015.1 hPa Calm     80% 0 mm
02:25 16.2 °C 12.9 °C 1015.1 hPa Calm     81% 0 mm
02:30 16.1 °C 13 °C 1015.1 hPa Calm     82% 0 mm
02:35 16.1 °C 13 °C 1015.1 hPa Calm   1.6 km/h 82% 0 mm
02:40 16.1 °C 13 °C 1015.1 hPa Calm     82% 0 mm
02:45 16.1 °C 13 °C 1015.1 hPa Calm     82% 0 mm
02:50 16 °C 12.9 °C 1015.1 hPa Calm     82% 0 mm
02:55 15.9 °C 12.9 °C 1015.1 hPa Calm   3.2 km/h 82% 0 mm
03:00 16 °C 12.9 °C 1015.1 hPa Calm   3.2 km/h 82% 0 mm
03:05 16 °C 12.9 °C 1015.5 hPa Calm   3.2 km/h 82% 0 mm
03:10 16.1 °C 13.1 °C 1015.5 hPa Calm     82% 0 mm
03:15 16.1 °C 13.1 °C 1015.5 hPa Calm     82% 0 mm
03:20 16.1 °C 13 °C 1015.5 hPa Calm   1.6 km/h 82% 0 mm
03:25 16 °C 12.9 °C 1015.5 hPa Calm     82% 0 mm
03:30 16 °C 12.9 °C 1015.5 hPa Calm     82% 0 mm
03:35 15.9 °C 12.9 °C 1015.5 hPa Calm     82% 0 mm
03:40 15.8 °C 12.9 °C 1015.5 hPa Calm     83% 0 mm
03:45 15.7 °C 12.8 °C 1015.5 hPa Calm     83% 0 mm
03:50 15.5 °C 12.8 °C 1015.5 hPa Calm     84% 0 mm
03:55 15.4 °C 12.7 °C 1015.5 hPa Calm     84% 0 mm
04:00 15.3 °C 12.8 °C 1015.5 hPa Calm     85% 0 mm
04:05 15.2 °C 12.7 °C 1015.5 hPa Calm     85% 0 mm
04:10 15.2 °C 12.8 °C 1015.8 hPa Calm     86% 0 mm
04:15 15.1 °C 12.8 °C 1015.8 hPa Calm     86% 0 mm
04:20 15.1 °C 12.7 °C 1015.8 hPa Calm     86% 0 mm
04:25 15 °C 12.7 °C 1015.5 hPa Calm     86% 0 mm
04:30 15 °C 12.7 °C 1015.8 hPa Calm     86% 0 mm
04:35 15 °C 12.8 °C 1015.8 hPa Calm     87% 0 mm
04:40 14.9 °C 12.8 °C 1015.8 hPa Calm     87% 0 mm
04:45 14.9 °C 12.8 °C 1015.8 hPa Calm     87% 0 mm
04:50 14.9 °C 12.8 °C 1015.8 hPa Calm     87% 0 mm
04:55 15 °C 12.8 °C 1015.8 hPa Calm     87% 0 mm
05:00 15 °C 12.8 °C 1015.8 hPa Calm     87% 0 mm
05:05 14.9 °C 12.8 °C 1015.8 hPa Calm     87% 0 mm
05:10 14.9 °C 12.7 °C 1015.8 hPa Calm     87% 0 mm
05:15 14.9 °C 12.7 °C 1015.8 hPa Calm     87% 0 mm
05:20 14.9 °C 12.8 °C 1016.1 hPa Calm     87% 0 mm
05:25 14.8 °C 12.7 °C 1016.1 hPa Calm     87% 0 mm
05:30 14.8 °C 12.8 °C 1016.1 hPa Calm     88% 0 mm
05:35 14.8 °C 12.8 °C 1016.1 hPa Calm     88% 0 mm
05:40 14.8 °C 12.9 °C 1016.5 hPa Calm     88% 0 mm
05:45 14.8 °C 12.9 °C 1016.1 hPa Calm     88% 0 mm
05:50 14.8 °C 12.9 °C 1016.1 hPa Calm     88% 0 mm
05:55 14.8 °C 12.8 °C 1016.1 hPa Calm     88% 0 mm
06:00 14.8 °C 12.8 °C 1016.5 hPa Calm     88% 0 mm
06:05 14.8 °C 12.8 °C 1016.5 hPa Calm     88% 0 mm
06:10 14.8 °C 12.8 °C 1016.5 hPa Calm     88% 0 mm
06:15 14.9 °C 13.2 °C 1016.5 hPa Calm     89% 0 mm
06:20 15.1 °C 13.3 °C 1016.5 hPa Calm     89% 0 mm
06:25 15.2 °C 13.4 °C 1016.8 hPa Calm     89% 0 mm
06:30 15.4 °C 13.6 °C 1016.8 hPa Calm     89% 0 mm
06:35 15.6 °C 13.7 °C 1017.2 hPa Calm     89% 0 mm
06:40 15.9 °C 14.3 °C 1017.2 hPa Calm     90% 0 mm
06:44 16.2 °C 14.6 °C 1017.2 hPa Calm   4.8 km/h 90% 0 mm
06:50 16.4 °C 14.6 °C 1017.2 hPa Calm   6.4 km/h 89% 0 mm
06:55 16.6 °C 14.8 °C 1017.2 hPa Calm   6.4 km/h 89% 0 mm
07:00 16.7 °C 14.7 °C 1017.2 hPa Calm   3.2 km/h 88% 0 mm
07:05 16.8 °C 14.8 °C 1017.2 hPa Calm   3.2 km/h 88% 0 mm
07:10 16.9 °C 14.7 °C 1017.2 hPa Calm   3.2 km/h 87% 0 mm
07:15 16.9 °C 14.7 °C 1017.2 hPa Calm     87% 0 mm
07:19 17 °C 14.8 °C 1017.2 hPa Calm     87% 0 mm
07:24 17.1 °C 14.9 °C 1017.2 hPa Calm     87% 0 mm
07:29 17.4 °C 15.3 °C 1017.2 hPa Calm   4.8 km/h 87% 0 mm
07:35 17.7 °C 15.3 °C 1017.2 hPa South 1.6 km/h 4.8 km/h 86% 0 mm
07:40 18.1 °C 15.5 °C 1017.2 hPa South 1.6 km/h 6.4 km/h 85% 0 mm
07:45 18.3 °C 15.6 °C 1017.2 hPa South 1.6 km/h 6.4 km/h 84% 0 mm
07:49 18.5 °C 15.6 °C 1017.2 hPa South 1.6 km/h 8 km/h 83% 0 mm
07:55 18.5 °C 15.4 °C 1017.2 hPa South 3.2 km/h 8 km/h 82% 0 mm
08:00 18.5 °C 15.2 °C 1017.5 hPa SSW 1.6 km/h 6.4 km/h 81% 0 mm
08:05 18.6 °C 15.2 °C 1017.5 hPa Calm   4.8 km/h 81% 0 mm
08:10 18.8 °C 15.5 °C 1017.5 hPa South 3.2 km/h 4.8 km/h 81% 0 mm
08:15 19 °C 15.4 °C 1017.5 hPa South 6.4 km/h 9.7 km/h 80% 0 mm
08:20 19.3 °C 15.7 °C 1017.5 hPa South 4.8 km/h 8 km/h 80% 0 mm
08:25 19.4 °C 15.9 °C 1017.5 hPa South 3.2 km/h 9.7 km/h 80% 0 mm
08:30 19.7 °C 15.7 °C 1017.5 hPa SSW 3.2 km/h 9.7 km/h 78% 0 mm
08:35 20 °C 15.8 °C 1017.5 hPa SSW 4.8 km/h 8 km/h 77% 0 mm
08:40 20.2 °C 15.8 °C 1017.5 hPa SW 9.7 km/h 9.7 km/h 76% 0 mm
08:45 20.6 °C 16.2 °C 1017.5 hPa SW 6.4 km/h 9.7 km/h 76% 0 mm
08:50 20.8 °C 16.2 °C 1017.5 hPa SW 3.2 km/h 9.7 km/h 75% 0 mm
08:54 21.2 °C 16.6 °C 1017.5 hPa SSW 4.8 km/h 9.7 km/h 75% 0 mm
09:00 21.4 °C 16.8 °C 1017.5 hPa WSW 4.8 km/h 16.1 km/h 75% 0 mm
09:04 21.6 °C 17 °C 1017.5 hPa SW 6.4 km/h 8 km/h 75% 0 mm
09:10 22 °C 17.4 °C 1017.5 hPa SW 4.8 km/h 12.9 km/h 75% 0 mm
09:15 22.3 °C 17.7 °C 1017.5 hPa WSW 4.8 km/h 11.3 km/h 75% 0 mm
09:20 22.5 °C 17.8 °C 1017.5 hPa West 4.8 km/h 12.9 km/h 75% 0 mm
09:24 22.3 °C 17.7 °C 1017.5 hPa SW 8 km/h 14.5 km/h 75% 0 mm
09:29 22.4 °C 17.7 °C 1017.5 hPa SW 6.4 km/h 14.5 km/h 75% 0 mm
09:35 22.8 °C 17.9 °C 1017.5 hPa SW 6.4 km/h 12.9 km/h 74% 0 mm
09:40 23.2 °C 18.3 °C 1017.5 hPa SW 6.4 km/h 12.9 km/h 74% 0 mm
09:45 23 °C 17.9 °C 1017.5 hPa SW 6.4 km/h 14.5 km/h 73% 0 mm
09:50 23.1 °C 18 °C 1017.5 hPa SW 8 km/h 14.5 km/h 73% 0 mm
09:54 23.2 °C 18.3 °C 1017.8 hPa WSW 8 km/h 16.1 km/h 74% 0 mm
09:59 23.3 °C 18.2 °C 1017.8 hPa West 14.5 km/h 17.7 km/h 73% 0 mm
10:04 23.4 °C 18.1 °C 1017.8 hPa South 9.7 km/h 16.1 km/h 72% 0 mm
10:10 23.3 °C 18 °C 1017.8 hPa SW 8 km/h 19.3 km/h 72% 0 mm
10:15 23.5 °C 18.4 °C 1017.8 hPa WSW 6.4 km/h 14.5 km/h 73% 0 mm
10:20 23.6 °C 18.5 °C 1017.8 hPa WSW 14.5 km/h 17.7 km/h 73% 0 mm
10:25 23.7 °C 18.6 °C 1017.8 hPa West 4.8 km/h 19.3 km/h 73% 0 mm
10:29 23.8 °C 18.7 °C 1018.2 hPa WSW 11.3 km/h 27.4 km/h 73% 0 mm
10:34 23.9 °C 19 °C 1018.2 hPa SW 11.3 km/h 27.4 km/h 74% 0 mm
10:40 24.2 °C 19.1 °C 1018.5 hPa WSW 9.7 km/h 20.9 km/h 73% 0 mm
10:45 24.3 °C 18.9 °C 1018.5 hPa WSW 9.7 km/h 22.5 km/h 72% 0 mm
10:50 24.2 °C 18.8 °C 1018.5 hPa WSW 6.4 km/h 22.5 km/h 72% 0 mm
10:54 24.3 °C 19.2 °C 1018.5 hPa WSW 9.7 km/h 22.5 km/h 73% 0 mm
11:00 24.5 °C 19.3 °C 1018.5 hPa West 4.8 km/h 19.3 km/h 73% 0 mm
11:04 24.6 °C 19.4 °C 1018.5 hPa SW 4.8 km/h 19.3 km/h 73% 0 mm
11:09 24.3 °C 19.4 °C 1018.8 hPa WSW 12.9 km/h 20.9 km/h 74% 0 mm
11:14 24.3 °C 19.8 °C 1018.8 hPa South 6.4 km/h 27.4 km/h 76% 0 mm
11:19 24.3 °C 19.8 °C 1018.8 hPa WSW 11.3 km/h 24.1 km/h 76% 0 mm
11:24 24.7 °C 19.7 °C 1018.8 hPa SW 12.9 km/h 22.5 km/h 74% 0 mm
11:29 24.7 °C 19.9 °C 1018.8 hPa WSW 8 km/h 20.9 km/h 75% 0 mm
11:34 24.7 °C 20 °C 1018.8 hPa SW 11.3 km/h 25.7 km/h 75% 0 mm
11:39 24.8 °C 20.1 °C 1018.8 hPa SW 8 km/h 22.5 km/h 75% 0 mm
11:45 25.1 °C 19.9 °C 1018.8 hPa WSW 12.9 km/h 24.1 km/h 73% 0 mm
11:50 24.9 °C 19.7 °C 1018.8 hPa SSW 14.5 km/h 20.9 km/h 73% 0 mm
11:55 24.8 °C 19.8 °C 1018.8 hPa West 3.2 km/h 20.9 km/h 74% 0 mm
11:59 24.8 °C 20.1 °C 1018.5 hPa SW 9.7 km/h 20.9 km/h 75% 0 mm
12:04 25.1 °C 20.2 °C 1018.5 hPa SW 9.7 km/h 22.5 km/h 74% 0 mm
12:09 25.2 °C 19.8 °C 1018.5 hPa SW 11.3 km/h 25.7 km/h 72% 0 mm
12:15 25.1 °C 20.2 °C 1018.5 hPa SW 12.9 km/h 25.7 km/h 74% 0 mm
12:20 25.4 °C 20 °C 1018.5 hPa SW 11.3 km/h 24.1 km/h 72% 0 mm
12:25 25.2 °C 19.3 °C 1018.5 hPa SW 11.3 km/h 20.9 km/h 70% 0 mm
12:29 25.3 °C 19.7 °C 1018.5 hPa WSW 8 km/h 19.3 km/h 71% 0 mm
12:34 25.4 °C 19.5 °C 1018.5 hPa SSE 4.8 km/h 16.1 km/h 70% 0 mm
12:40 25.8 °C 20.1 °C 1018.2 hPa WSW 9.7 km/h 20.9 km/h 71% 0 mm
12:44 25.6 °C 19.4 °C 1018.2 hPa SW 12.9 km/h 20.9 km/h 69% 0 mm
12:49 25.4 °C 20 °C 1018.5 hPa WSW 11.3 km/h 24.1 km/h 72% 0 mm
12:54 25.3 °C 19.7 °C 1018.2 hPa WSW 9.7 km/h 20.9 km/h 71% 0 mm
12:59 25.4 °C 19.6 °C 1018.5 hPa WSW 11.3 km/h 20.9 km/h 70% 0 mm
13:04 25.4 °C 19.1 °C 1018.5 hPa WSW 11.3 km/h 20.9 km/h 68% 0 mm
13:10 25.4 °C 20 °C 1018.5 hPa WSW 11.3 km/h 20.9 km/h 72% 0 mm
13:14 25.5 °C 19.4 °C 1018.5 hPa WSW 11.3 km/h 20.9 km/h 69% 0 mm
13:20 25.3 °C 19.2 °C 1018.5 hPa WSW 11.3 km/h 24.1 km/h 69% 0 mm
13:25 25.4 °C 19.8 °C 1018.5 hPa WSW 12.9 km/h 25.7 km/h 71% 0 mm
13:29 25.5 °C 19.4 °C 1018.5 hPa WSW 11.3 km/h 25.7 km/h 69% 0 mm
13:34 25.5 °C 19.6 °C 1018.5 hPa West 11.3 km/h 20.9 km/h 70% 0 mm
13:39 25.9 °C 20 °C 1018.5 hPa WSW 12.9 km/h 19.3 km/h 70% 0 mm
13:45 25.6 °C 19.5 °C 1018.5 hPa WSW 14.5 km/h 20.9 km/h 69% 0 mm
13:49 25.7 °C 19.8 °C 1018.5 hPa SSW 3.2 km/h 19.3 km/h 70% 0 mm
13:54 25.4 °C 19.6 °C 1018.8 hPa WSW 20.9 km/h 25.7 km/h 70% 0 mm
13:59 25.7 °C 19.8 °C 1018.8 hPa WSW 9.7 km/h 20.9 km/h 70% 0 mm
14:05 25.9 °C 19.6 °C 1018.8 hPa SW 11.3 km/h 20.9 km/h 68% 0 mm
14:09 25.7 °C 19.8 °C 1018.8 hPa SW 11.3 km/h 24.1 km/h 70% 0 mm
14:15 26.1 °C 19.5 °C 1018.8 hPa WSW 11.3 km/h 24.1 km/h 67% 0 mm
14:20 26.1 °C 19.4 °C 1018.8 hPa WSW 9.7 km/h 19.3 km/h 67% 0 mm
14:25 25.8 °C 19 °C 1018.8 hPa West 12.9 km/h 24.1 km/h 66% 0 mm
14:30 25.9 °C 19.1 °C 1018.8 hPa WSW 14.5 km/h 20.9 km/h 66% 0 mm
14:34 26 °C 19.2 °C 1018.8 hPa WSW 11.3 km/h 20.9 km/h 66% 0 mm
14:39 26.4 °C 19.1 °C 1018.8 hPa WSW 9.7 km/h 17.7 km/h 64% 0 mm
14:44 26.4 °C 18.8 °C 1018.5 hPa SW 9.7 km/h 16.1 km/h 63% 0 mm
14:49 26.3 °C 18.4 °C 1018.5 hPa WSW 8 km/h 24.1 km/h 62% 0 mm
14:54 26.1 °C 18.2 °C 1018.5 hPa SW 12.9 km/h 24.1 km/h 62% 0 mm
14:59 26.1 °C 18.2 °C 1018.5 hPa WSW 11.3 km/h 22.5 km/h 62% 0 mm
15:04 26.2 °C 18.1 °C 1018.5 hPa WSW 11.3 km/h 22.5 km/h 61% 0 mm
15:09 26.2 °C 17.8 °C 1018.5 hPa WSW 11.3 km/h 20.9 km/h 60% 0 mm
15:15 26.2 °C 17.8 °C 1018.5 hPa WSW 9.7 km/h 20.9 km/h 60% 0 mm
15:20 26.1 °C 17.4 °C 1018.5 hPa SW 6.4 km/h 24.1 km/h 59% 0 mm
15:24 26.3 °C 17.6 °C 1018.5 hPa SW 8 km/h 22.5 km/h 59% 0 mm
15:30 26.2 °C 17.8 °C 1018.2 hPa WSW 11.3 km/h 20.9 km/h 60% 0 mm
15:34 26.2 °C 17.6 °C 1018.5 hPa WSW 11.3 km/h 20.9 km/h 59% 0 mm
15:40 26.1 °C 17.2 °C 1018.5 hPa WSW 11.3 km/h 27.4 km/h 58% 0 mm
15:44 26.1 °C 17.2 °C 1018.5 hPa WSW 11.3 km/h 25.7 km/h 58% 0 mm
15:49 26.1 °C 17.4 °C 1018.5 hPa SSW 6.4 km/h 24.1 km/h 59% 0 mm
15:54 26.2 °C 17.5 °C 1018.5 hPa WSW 8 km/h 20.9 km/h 59% 0 mm
15:59 26.1 °C 17.7 °C 1018.5 hPa WSW 11.3 km/h 22.5 km/h 60% 0 mm
16:04 26.2 °C 17.8 °C 1018.5 hPa SW 11.3 km/h 22.5 km/h 60% 0 mm
16:10 26.1 °C 17.4 °C 1018.5 hPa WSW 9.7 km/h 19.3 km/h 59% 0 mm
16:14 26.2 °C 17.5 °C 1018.2 hPa SW 11.3 km/h 20.9 km/h 59% 0 mm
16:19 26.2 °C 17.5 °C 1018.2 hPa WSW 9.7 km/h 20.9 km/h 59% 0 mm
16:24 26.1 °C 17.4 °C 1018.2 hPa WSW 9.7 km/h 27.4 km/h 59% 0 mm
16:29 26.2 °C 17.3 °C 1018.2 hPa WNW 8 km/h 22.5 km/h 58% 0 mm
16:34 26.1 °C 17.2 °C 1018.2 hPa WSW 11.3 km/h 22.5 km/h 58% 0 mm
16:39 26.2 °C 17.1 °C 1018.2 hPa WSW 11.3 km/h 24.1 km/h 57% 0 mm
16:44 26.1 °C 16.9 °C 1018.2 hPa WSW 11.3 km/h 24.1 km/h 57% 0 mm
16:50 26 °C 16.8 °C 1018.2 hPa SW 11.3 km/h 20.9 km/h 57% 0 mm
16:54 26.1 °C 17.2 °C 1018.2 hPa WSW 8 km/h 19.3 km/h 58% 0 mm
16:59 26.2 °C 17.3 °C 1018.2 hPa SW 1.6 km/h 19.3 km/h 58% 0 mm
17:04 26.2 °C 17 °C 1018.2 hPa SW 8 km/h 19.3 km/h 57% 0 mm
17:09 25.9 °C 16.7 °C 1018.2 hPa SW 11.3 km/h 22.5 km/h 57% 0 mm
17:14 25.8 °C 16.9 °C 1017.8 hPa West 8 km/h 19.3 km/h 58% 0 mm
17:19 25.8 °C 16.7 °C 1017.8 hPa SSW 12.9 km/h 17.7 km/h 57% 0 mm
17:24 25.9 °C 16.7 °C 1017.8 hPa West 8 km/h 17.7 km/h 57% 0 mm
17:29 25.7 °C 16.6 °C 1017.8 hPa SW 6.4 km/h 22.5 km/h 57% 0 mm
17:34 25.8 °C 17.2 °C 1017.8 hPa SW 9.7 km/h 22.5 km/h 59% 0 mm
17:39 25.9 °C 17.1 °C 1017.8 hPa SW 8 km/h 24.1 km/h 58% 0 mm
17:44 25.6 °C 17 °C 1017.8 hPa SW 9.7 km/h 24.1 km/h 59% 0 mm
17:49 25.5 °C 16.9 °C 1017.8 hPa WSW 9.7 km/h 24.1 km/h 59% 0 mm
17:54 25.5 °C 16.9 °C 1017.8 hPa WSW 9.7 km/h 20.9 km/h 59% 0 mm
18:00 25.6 °C 16.7 °C 1017.8 hPa SW 8 km/h 20.9 km/h 58% 0 mm
18:04 25.4 °C 16.3 °C 1018.2 hPa WSW 9.7 km/h 20.9 km/h 57% 0 mm
18:09 25.2 °C 16.4 °C 1018.2 hPa WSW 11.3 km/h 20.9 km/h 58% 0 mm
18:14 25.1 °C 16.6 °C 1018.2 hPa WSW 12.9 km/h 20.9 km/h 59% 0 mm
18:19 25.1 °C 16.8 °C 1017.8 hPa SSW 4.8 km/h 14.5 km/h 60% 0 mm
18:24 25 °C 16.7 °C 1017.8 hPa WSW 11.3 km/h 19.3 km/h 60% 0 mm
18:29 24.9 °C 16.9 °C 1017.8 hPa SW 11.3 km/h 14.5 km/h 61% 0 mm
18:34 24.8 °C 16.6 °C 1017.8 hPa WSW 11.3 km/h 19.3 km/h 60% 0 mm
18:39 24.7 °C 16.9 °C 1017.8 hPa SW 8 km/h 19.3 km/h 62% 0 mm
18:44 24.7 °C 16.4 °C 1017.8 hPa SW 6.4 km/h 16.1 km/h 60% 0 mm
18:49 24.6 °C 16.3 °C 1017.8 hPa WSW 4.8 km/h 16.1 km/h 60% 0 mm
18:55 24.6 °C 16.6 °C 1017.8 hPa WSW 6.4 km/h 12.9 km/h 61% 0 mm
18:59 24.4 °C 16.4 °C 1018.2 hPa WSW 8 km/h 12.9 km/h 61% 0 mm
19:04 24.4 °C 16.6 °C 1018.2 hPa WSW 6.4 km/h 14.5 km/h 62% 0 mm
19:09 24.3 °C 16.8 °C 1017.8 hPa WSW 6.4 km/h 14.5 km/h 63% 0 mm
19:14 24.2 °C 16.9 °C 1017.8 hPa WSW 6.4 km/h 16.1 km/h 64% 0 mm
19:20 24.1 °C 16.8 °C 1017.8 hPa WSW 6.4 km/h 16.1 km/h 64% 0 mm
19:24 23.9 °C 16.9 °C 1018.2 hPa SW 4.8 km/h 14.5 km/h 65% 0 mm
19:29 23.8 °C 16.8 °C 1018.2 hPa SW 6.4 km/h 14.5 km/h 65% 0 mm
19:34 23.7 °C 16.9 °C 1018.2 hPa WSW 1.6 km/h 8 km/h 66% 0 mm
19:39 23.5 °C 17 °C 1018.2 hPa WSW 3.2 km/h 6.4 km/h 67% 0 mm
19:44 23.3 °C 17.1 °C 1018.2 hPa SW 3.2 km/h 4.8 km/h 68% 0 mm
19:49 23.1 °C 17.1 °C 1018.2 hPa SSW 3.2 km/h 8 km/h 69% 0 mm
19:54 22.9 °C 17.1 °C 1018.2 hPa SSW 1.6 km/h 6.4 km/h 70% 0 mm
19:59 22.8 °C 17.2 °C 1018.2 hPa SW 3.2 km/h 6.4 km/h 71% 0 mm
20:04 22.6 °C 17.3 °C 1018.2 hPa Calm   6.4 km/h 72% 0 mm
20:09 22.6 °C 17.3 °C 1018.2 hPa SW 3.2 km/h 8 km/h 72% 0 mm
20:14 22.4 °C 17.4 °C 1018.2 hPa SSW 3.2 km/h 8 km/h 73% 0 mm
20:19 22.3 °C 17.4 °C 1018.2 hPa SSW 3.2 km/h 6.4 km/h 74% 0 mm
20:24 22.2 °C 17.4 °C 1018.2 hPa SSW 3.2 km/h 6.4 km/h 74% 0 mm
20:29 22.1 °C 17.4 °C 1018.2 hPa SSW 1.6 km/h 6.4 km/h 75% 0 mm
20:34 22.1 °C 17.6 °C 1018.5 hPa Calm   9.7 km/h 76% 0 mm
20:39 21.9 °C 17.5 °C 1018.5 hPa SSW 1.6 km/h 9.7 km/h 76% 0 mm
20:44 21.9 °C 17.4 °C 1018.5 hPa SSW 1.6 km/h 8 km/h 76% 0 mm
20:49 21.9 °C 17.4 °C 1018.5 hPa SSW 3.2 km/h 8 km/h 76% 0 mm
20:54 21.8 °C 17.4 °C 1018.5 hPa SW 1.6 km/h 6.4 km/h 76% 0 mm
21:00 21.7 °C 17.3 °C 1018.5 hPa Calm   4.8 km/h 76% 0 mm
21:04 21.5 °C 17.1 °C 1018.8 hPa Calm   4.8 km/h 76% 0 mm
21:09 21.4 °C 17 °C 1018.8 hPa SSW 1.6 km/h 6.4 km/h 76% 0 mm
21:14 21.3 °C 16.9 °C 1018.8 hPa SSW 1.6 km/h 6.4 km/h 76% 0 mm
21:19 21.2 °C 16.8 °C 1018.8 hPa Calm   4.8 km/h 76% 0 mm
21:24 21.1 °C 16.7 °C 1018.8 hPa Calm   1.6 km/h 76% 0 mm
21:29 20.9 °C 16.6 °C 1018.8 hPa Calm     76% 0 mm
21:34 20.8 °C 16.6 °C 1019.2 hPa Calm     77% 0 mm
21:35 20.8 °C 16.6 °C 1019.2 hPa Calm     77% 0 mm
21:40 20.6 °C 16.4 °C 1018.8 hPa Calm     77% 0 mm
21:44 20.4 °C 16.4 °C 1019.2 hPa Calm     78% 0 mm
21:49 20.3 °C 16.3 °C 1019.2 hPa Calm     78% 0 mm
21:54 20.2 °C 16.2 °C 1019.2 hPa Calm     78% 0 mm
21:59 20 °C 16.1 °C 1019.2 hPa Calm     78% 0 mm
22:04 19.9 °C 15.9 °C 1019.2 hPa Calm     78% 0 mm
22:09 19.8 °C 15.9 °C 1019.2 hPa Calm     78% 0 mm
22:14 19.8 °C 15.6 °C 1019.2 hPa Calm     77% 0 mm
22:19 19.8 °C 15.4 °C 1019.2 hPa Calm     76% 0 mm
22:24 19.8 °C 15.4 °C 1019.2 hPa Calm     76% 0 mm
22:29 19.8 °C 15.4 °C 1019.2 hPa Calm     76% 0 mm
22:34 19.7 °C 15.4 °C 1019.2 hPa Calm     76% 0 mm
22:39 19.7 °C 15.4 °C 1019.2 hPa Calm     76% 0 mm
22:44 19.7 °C 15.3 °C 1019.2 hPa Calm     76% 0 mm
22:49 19.6 °C 15.2 °C 1019.2 hPa Calm     76% 0 mm
22:54 19.6 °C 15.2 °C 1019.2 hPa Calm     76% 0 mm
22:59 19.5 °C 14.9 °C 1019.2 hPa Calm     75% 0 mm
23:04 19.4 °C 15.1 °C 1019.2 hPa Calm     76% 0 mm
23:09 19.2 °C 15.1 °C 1019.2 hPa Calm     77% 0 mm
23:14 19.1 °C 14.9 °C 1019.2 hPa Calm     77% 0 mm
23:19 18.9 °C 14.9 °C 1019.2 hPa Calm     78% 0 mm
23:24 18.7 °C 14.8 °C 1019.2 hPa Calm     78% 0 mm
23:29 18.6 °C 14.8 °C 1019.2 hPa Calm     79% 0 mm
23:34 18.5 °C 14.8 °C 1019.2 hPa Calm     79% 0 mm
23:39 18.4 °C 14.7 °C 1019.2 hPa Calm     79% 0 mm
23:44 18.3 °C 14.6 °C 1019.2 hPa Calm     79% 0 mm
23:49 18.3 °C 14.6 °C 1019.2 hPa Calm     79% 0 mm
23:54 18.2 °C 14.5 °C 1019.2 hPa Calm     79% 0 mm
23:59 18.1 °C 14.6 °C 1019.2 hPa Calm     80% 0 mm
Buffalo, New York, USA
Compliments of Weather Underground - 2.5 mb